createdAt,value
2023-05-01T00:02:05.228Z,13.48
2023-05-01T00:04:33.917Z,12.02
2023-05-01T00:07:00.949Z,11.95
2023-05-01T00:09:28.224Z,13.63
2023-05-01T00:11:55.233Z,11.88
2023-05-01T00:14:21.986Z,13.32
2023-05-01T00:16:49.306Z,12.65
2023-05-01T00:19:19.348Z,14.00
2023-05-01T00:21:48.398Z,13.80
2023-05-01T00:24:16.622Z,12.45
2023-05-01T00:26:45.151Z,13.05
2023-05-01T00:29:12.018Z,13.40
2023-05-01T00:31:39.258Z,12.85
2023-05-01T00:34:06.238Z,13.10
2023-05-01T00:36:33.255Z,13.80
2023-05-01T00:39:00.009Z,12.43
2023-05-01T00:41:27.813Z,12.18
2023-05-01T00:43:54.624Z,12.15
2023-05-01T00:46:22.046Z,14.70
2023-05-01T00:48:48.912Z,12.68
2023-05-01T00:51:16.102Z,14.50
2023-05-01T00:53:43.514Z,14.30
2023-05-01T00:56:11.722Z,12.93
2023-05-01T00:58:39.288Z,13.60
2023-05-01T01:01:08.965Z,12.35
2023-05-01T01:03:35.860Z,11.55
2023-05-01T01:06:32.789Z,12.55
2023-05-01T01:09:27.498Z,12.27
2023-05-01T01:12:15.131Z,11.23
2023-05-01T01:14:50.906Z,12.50
2023-05-01T01:17:29.727Z,12.45
2023-05-01T01:20:26.013Z,10.35
2023-05-01T01:23:30.574Z,11.23
2023-05-01T01:26:17.521Z,11.27
2023-05-01T01:29:12.337Z,10.07
2023-05-01T01:32:08.805Z,9.73
2023-05-01T01:35:10.793Z,9.63
2023-05-01T01:37:37.446Z,9.15
2023-05-01T01:40:13.084Z,10.38
2023-05-01T01:43:13.817Z,12.50
2023-05-01T01:45:47.492Z,12.52
2023-05-01T01:48:27.564Z,10.85
2023-05-01T01:50:57.441Z,11.15
2023-05-01T01:53:26.572Z,10.45
2023-05-01T01:55:55.124Z,10.65
2023-05-01T01:58:26.418Z,11.45
2023-05-01T02:00:55.444Z,10.43
2023-05-01T02:03:24.269Z,11.70
2023-05-01T02:05:54.584Z,9.75
2023-05-01T02:08:22.647Z,10.65
2023-05-01T02:10:51.056Z,11.15
2023-05-01T02:13:20.048Z,8.88
2023-05-01T02:15:48.624Z,9.85
2023-05-01T02:18:16.281Z,9.07
2023-05-01T02:20:44.541Z,9.23
2023-05-01T02:23:12.858Z,8.00
2023-05-01T02:25:40.142Z,8.23
2023-05-01T02:28:13.268Z,8.60
2023-05-01T02:30:40.437Z,8.27
2023-05-01T02:33:09.031Z,8.93
2023-05-01T02:35:41.033Z,7.90
2023-05-01T02:40:47.460Z,7.95
2023-05-01T02:43:26.892Z,7.68
2023-05-01T02:45:55.144Z,8.68
2023-05-01T02:48:25.492Z,8.63
2023-05-01T02:50:55.017Z,8.00
2023-05-01T02:53:22.422Z,8.75
2023-05-01T02:55:50.722Z,10.30
2023-05-01T02:58:20.800Z,9.05
2023-05-01T03:00:50.064Z,7.57
2023-05-01T03:03:17.395Z,8.43
2023-05-01T03:05:44.496Z,8.43
2023-05-01T03:08:11.675Z,8.52
2023-05-01T03:10:44.566Z,8.10
2023-05-01T03:13:11.829Z,8.70
2023-05-01T03:15:39.495Z,8.07
2023-05-01T03:18:07.097Z,8.32
2023-05-01T03:20:34.309Z,6.70
2023-05-01T03:23:01.669Z,7.55
2023-05-01T03:25:28.853Z,7.68
2023-05-01T03:27:55.617Z,7.90
2023-05-01T03:30:22.713Z,7.80
2023-05-01T03:32:49.591Z,8.45
2023-05-01T03:35:16.808Z,7.78
2023-05-01T03:37:43.495Z,7.70
2023-05-01T03:40:13.777Z,8.05
2023-05-01T03:42:40.751Z,7.63
2023-05-01T03:45:08.399Z,7.28
2023-05-01T03:47:35.106Z,7.88
2023-05-01T03:50:02.721Z,7.93
2023-05-01T03:52:30.208Z,7.05
2023-05-01T03:54:57.274Z,7.57
2023-05-01T03:57:24.061Z,7.40
2023-05-01T03:59:51.054Z,7.75
2023-05-01T04:02:17.993Z,8.60
2023-05-01T04:04:45.197Z,7.80
2023-05-01T04:07:13.124Z,7.07
2023-05-01T04:09:43.911Z,7.57
2023-05-01T04:12:10.671Z,7.15
2023-05-01T04:14:37.780Z,9.23
2023-05-01T04:17:04.623Z,8.95
2023-05-01T04:19:31.648Z,9.43
2023-05-01T04:21:58.459Z,9.93
2023-05-01T04:24:25.733Z,9.60
2023-05-01T04:26:52.670Z,9.13
2023-05-01T04:29:19.840Z,9.82
2023-05-01T04:31:46.698Z,11.00
2023-05-01T04:34:16.551Z,9.68
2023-05-01T04:36:43.230Z,9.65
2023-05-01T04:39:10.608Z,9.93
2023-05-01T04:41:37.322Z,12.05
2023-05-01T04:44:04.435Z,14.00
2023-05-01T04:46:31.198Z,13.98
2023-05-01T04:48:58.231Z,13.35
2023-05-01T04:51:25.001Z,12.00
2023-05-01T04:53:52.043Z,15.05
2023-05-01T04:56:18.913Z,32.53
2023-05-01T04:58:45.942Z,34.25
2023-05-01T05:01:12.861Z,31.98
2023-05-01T05:03:49.825Z,24.65
2023-05-01T05:06:17.082Z,23.65
2023-05-01T05:08:44.196Z,19.10
2023-05-01T05:11:11.144Z,15.80
2023-05-01T05:13:38.206Z,12.50
2023-05-01T05:16:05.514Z,13.73
2023-05-01T05:18:32.563Z,12.52
2023-05-01T05:21:03.628Z,12.60
2023-05-01T05:23:30.943Z,14.45
2023-05-01T05:26:01.631Z,13.35
2023-05-01T05:28:29.419Z,12.73
2023-05-01T05:30:56.793Z,17.75
2023-05-01T05:33:26.869Z,18.10
2023-05-01T05:35:53.922Z,17.52
2023-05-01T05:38:20.951Z,16.13
2023-05-01T05:40:47.736Z,9.95
2023-05-01T05:43:14.872Z,7.22
2023-05-01T05:45:41.768Z,7.18
2023-05-01T05:48:09.098Z,6.28
2023-05-01T05:50:36.158Z,6.18
2023-05-01T05:53:03.380Z,6.30
2023-05-01T05:55:30.106Z,5.72
2023-05-01T05:57:57.175Z,7.38
2023-05-01T06:00:24.076Z,6.75
2023-05-01T06:02:51.640Z,6.43
2023-05-01T06:05:18.746Z,6.82
2023-05-01T06:07:46.307Z,5.82
2023-05-01T06:10:13.050Z,5.85
2023-05-01T06:12:43.274Z,6.75
2023-05-01T06:15:17.230Z,6.25
2023-05-01T06:17:44.337Z,5.53
2023-05-01T06:20:14.220Z,6.20
2023-05-01T06:22:41.186Z,5.53
2023-05-01T06:25:09.121Z,4.50
2023-05-01T06:27:36.887Z,4.65
2023-05-01T06:30:03.802Z,4.85
2023-05-01T06:32:30.939Z,4.38
2023-05-01T06:34:57.876Z,4.22
2023-05-01T06:37:25.211Z,4.72
2023-05-01T06:39:51.973Z,4.50
2023-05-01T06:42:21.392Z,4.25
2023-05-01T06:44:48.083Z,4.78
2023-05-01T06:47:15.181Z,5.18
2023-05-01T06:49:43.695Z,5.05
2023-05-01T06:52:11.778Z,4.82
2023-05-01T06:54:38.610Z,4.20
2023-05-01T06:57:05.739Z,4.07
2023-05-01T06:59:32.511Z,4.60
2023-05-01T07:01:59.627Z,3.40
2023-05-01T07:04:26.335Z,3.15
2023-05-01T07:06:53.362Z,3.45
2023-05-01T07:09:21.499Z,3.40
2023-05-01T07:11:48.490Z,3.85
2023-05-01T07:14:15.442Z,3.35
2023-05-01T07:16:42.531Z,3.60
2023-05-01T07:19:09.241Z,3.30
2023-05-01T07:21:36.853Z,3.65
2023-05-01T07:24:03.795Z,4.18
2023-05-01T07:26:30.861Z,3.60
2023-05-01T07:28:57.609Z,3.35
2023-05-01T07:31:24.682Z,2.95
2023-05-01T07:33:52.983Z,3.50
2023-05-01T07:36:22.299Z,3.60
2023-05-01T07:38:49.080Z,3.13
2023-05-01T07:41:16.077Z,3.15
2023-05-01T07:43:42.854Z,3.50
2023-05-01T07:46:10.303Z,3.50
2023-05-01T07:48:38.944Z,3.55
2023-05-01T07:51:06.373Z,3.30
2023-05-01T07:53:33.293Z,3.05
2023-05-01T07:56:08.992Z,3.45
2023-05-01T07:58:37.205Z,2.92
2023-05-01T08:01:06.112Z,2.78
2023-05-01T08:03:33.019Z,3.03
2023-05-01T08:06:00.561Z,3.03
2023-05-01T08:08:27.426Z,2.90
2023-05-01T08:10:54.616Z,3.72
2023-05-01T08:13:21.587Z,2.53
2023-05-01T08:15:49.427Z,2.75
2023-05-01T08:18:20.495Z,2.72
2023-05-01T08:20:48.757Z,2.60
2023-05-01T08:23:17.367Z,3.00
2023-05-01T08:25:47.393Z,2.55
2023-05-01T08:28:15.095Z,2.85
2023-05-01T08:30:42.168Z,2.97
2023-05-01T08:33:08.993Z,2.75
2023-05-01T08:35:36.118Z,2.83
2023-05-01T08:38:03.296Z,3.15
2023-05-01T08:40:33.404Z,2.75
2023-05-01T08:43:03.997Z,2.80
2023-05-01T08:45:57.229Z,2.67
2023-05-01T08:48:26.321Z,2.95
2023-05-01T08:50:56.527Z,2.60
2023-05-01T08:53:24.543Z,3.10
2023-05-01T08:55:52.657Z,3.00
2023-05-01T08:58:21.234Z,2.70
2023-05-01T09:00:48.634Z,2.47
2023-05-01T09:03:16.737Z,2.50
2023-05-01T09:05:43.983Z,3.03
2023-05-01T09:08:10.944Z,2.60
2023-05-01T09:10:45.438Z,2.42
2023-05-01T09:13:12.683Z,2.80
2023-05-01T09:15:39.902Z,2.33
2023-05-01T09:18:08.945Z,4.25
2023-05-01T09:20:37.531Z,3.80
2023-05-01T09:23:04.762Z,3.17
2023-05-01T09:25:31.952Z,3.30
2023-05-01T09:27:58.683Z,2.92
2023-05-01T09:30:33.156Z,3.47
2023-05-01T09:33:12.083Z,2.53
2023-05-01T09:35:56.210Z,2.88
2023-05-01T09:38:27.853Z,3.00
2023-05-01T09:40:57.309Z,2.95
2023-05-01T09:43:26.755Z,3.15
2023-05-01T09:46:05.365Z,2.53
2023-05-01T09:48:35.089Z,2.90
2023-05-01T09:51:27.718Z,2.70
2023-05-01T09:53:56.599Z,2.75
2023-05-01T09:56:25.543Z,3.08
2023-05-01T09:58:53.964Z,2.50
2023-05-01T10:01:43.705Z,2.72
2023-05-01T10:06:46.498Z,2.65
2023-05-01T10:09:27.978Z,2.88
2023-05-01T10:11:57.707Z,2.53
2023-05-01T10:14:26.916Z,2.90
2023-05-01T10:16:54.429Z,2.92
2023-05-01T10:19:21.709Z,2.58
2023-05-01T10:21:48.979Z,2.30
2023-05-01T10:24:36.367Z,2.70
2023-05-01T10:27:06.718Z,2.60
2023-05-01T10:29:37.545Z,2.65
2023-05-01T10:32:07.430Z,2.90
2023-05-01T10:34:57.530Z,2.80
2023-05-01T10:37:39.488Z,2.58
2023-05-01T10:40:40.907Z,2.40
2023-05-01T10:43:20.966Z,3.35
2023-05-01T10:45:49.169Z,2.75
2023-05-01T10:48:38.419Z,2.53
2023-05-01T10:51:12.239Z,3.40
2023-05-01T10:53:43.244Z,2.40
2023-05-01T10:56:24.176Z,2.40
2023-05-01T10:58:56.476Z,2.45
2023-05-01T11:01:29.091Z,2.85
2023-05-01T11:04:05.369Z,2.42
2023-05-01T11:06:32.304Z,2.20
2023-05-01T11:09:00.359Z,2.60
2023-05-01T11:11:27.142Z,2.50
2023-05-01T11:14:04.412Z,2.35
2023-05-01T11:19:01.295Z,2.50
2023-05-01T11:21:34.084Z,2.72
2023-05-01T11:24:01.613Z,2.80
2023-05-01T11:26:31.207Z,2.50
2023-05-01T11:29:01.356Z,2.25
2023-05-01T11:31:29.167Z,2.80
2023-05-01T11:33:57.244Z,3.30
2023-05-01T11:36:24.565Z,2.55
2023-05-01T11:39:02.170Z,2.60
2023-05-01T11:41:28.991Z,2.63
2023-05-01T11:44:05.650Z,2.00
2023-05-01T11:46:33.907Z,2.22
2023-05-01T11:49:01.767Z,2.65
2023-05-01T11:51:29.609Z,2.78
2023-05-01T11:54:15.810Z,2.60
2023-05-01T11:56:43.023Z,2.70
2023-05-01T11:59:12.606Z,2.22
2023-05-01T12:01:44.623Z,2.75
2023-05-01T12:04:13.474Z,2.40
2023-05-01T12:06:45.898Z,2.55
2023-05-01T12:09:17.953Z,2.45
2023-05-01T12:11:46.441Z,2.17
2023-05-01T12:14:15.302Z,1.98
2023-05-01T12:16:43.135Z,2.00
2023-05-01T12:19:12.866Z,2.30
2023-05-01T12:21:40.234Z,2.53
2023-05-01T12:24:18.017Z,2.30
2023-05-01T12:26:46.159Z,2.28
2023-05-01T12:29:13.236Z,2.15
2023-05-01T12:31:48.495Z,2.63
2023-05-01T12:34:15.788Z,2.33
2023-05-01T12:36:42.657Z,2.25
2023-05-01T12:39:12.117Z,2.03
2023-05-01T12:41:44.478Z,2.10
2023-05-01T12:44:25.952Z,2.40
2023-05-01T12:47:07.307Z,1.75
2023-05-01T12:49:38.739Z,2.38
2023-05-01T12:52:07.900Z,2.40
2023-05-01T12:55:02.031Z,2.10
2023-05-01T12:57:28.948Z,2.17
2023-05-01T13:00:05.174Z,2.28
2023-05-01T13:02:33.471Z,2.30
2023-05-01T13:05:12.710Z,2.22
2023-05-01T13:07:42.298Z,2.30
2023-05-01T13:10:09.879Z,2.10
2023-05-01T13:12:46.316Z,2.38
2023-05-01T13:15:21.240Z,2.30
2023-05-01T13:17:48.286Z,2.75
2023-05-01T13:20:15.642Z,2.25
2023-05-01T13:22:45.698Z,2.30
2023-05-01T13:25:18.423Z,2.60
2023-05-01T13:27:53.353Z,2.47
2023-05-01T13:30:31.365Z,2.95
2023-05-01T13:32:58.618Z,2.95
2023-05-01T13:35:27.207Z,2.42
2023-05-01T13:37:55.131Z,2.35
2023-05-01T13:40:26.142Z,2.80
2023-05-01T13:42:54.237Z,2.40
2023-05-01T13:45:24.806Z,2.38
2023-05-01T13:47:55.431Z,2.90
2023-05-01T13:50:23.039Z,2.70
2023-05-01T13:52:51.760Z,2.80
2023-05-01T13:55:24.352Z,2.95
2023-05-01T13:57:51.343Z,2.80
2023-05-01T14:00:19.236Z,3.10
2023-05-01T14:02:56.732Z,2.80
2023-05-01T14:05:28.837Z,2.78
2023-05-01T14:07:58.331Z,3.10
2023-05-01T14:10:28.262Z,2.80
2023-05-01T14:12:57.499Z,3.30
2023-05-01T14:15:25.134Z,2.85
2023-05-01T14:17:52.842Z,2.72
2023-05-01T14:20:24.599Z,2.72
2023-05-01T14:22:52.391Z,7.03
2023-05-01T14:25:29.840Z,3.97
2023-05-01T14:27:58.338Z,3.08
2023-05-01T14:30:33.544Z,4.22
2023-05-01T14:33:06.232Z,3.53
2023-05-01T14:35:34.430Z,3.15
2023-05-01T14:38:13.999Z,3.30
2023-05-01T14:40:44.345Z,3.25
2023-05-01T14:43:14.153Z,2.80
2023-05-01T14:45:42.861Z,2.80
2023-05-01T14:48:15.979Z,3.38
2023-05-01T14:50:42.986Z,3.03
2023-05-01T14:53:09.694Z,3.30
2023-05-01T14:55:36.747Z,3.40
2023-05-01T14:58:03.823Z,3.40
2023-05-01T15:00:30.846Z,2.92
2023-05-01T15:03:06.339Z,3.13
2023-05-01T15:05:33.617Z,3.80
2023-05-01T15:08:04.137Z,3.13
2023-05-01T15:12:59.172Z,2.90
2023-05-01T15:15:26.912Z,3.85
2023-05-01T15:17:53.783Z,3.42
2023-05-01T15:20:21.137Z,3.60
2023-05-01T15:22:47.934Z,3.72
2023-05-01T15:25:16.451Z,3.35
2023-05-01T15:27:44.637Z,3.35
2023-05-01T15:30:15.276Z,3.50
2023-05-01T15:32:42.500Z,3.10
2023-05-01T15:35:09.774Z,3.65
2023-05-01T15:37:36.586Z,3.22
2023-05-01T15:40:04.513Z,3.42
2023-05-01T15:42:31.521Z,3.35
2023-05-01T15:44:59.072Z,3.33
2023-05-01T15:47:26.456Z,3.05
2023-05-01T15:49:53.867Z,3.17
2023-05-01T15:52:20.684Z,5.63
2023-05-01T15:54:47.847Z,3.78
2023-05-01T15:57:17.767Z,3.67
2023-05-01T15:59:45.046Z,3.65
2023-05-01T16:02:12.044Z,3.60
2023-05-01T16:04:39.137Z,3.70
2023-05-01T16:07:07.662Z,3.95
2023-05-01T16:09:34.728Z,3.63
2023-05-01T16:12:03.345Z,4.25
2023-05-01T16:14:31.215Z,3.95
2023-05-01T16:16:58.181Z,3.67
2023-05-01T16:19:28.578Z,4.13
2023-05-01T16:21:55.572Z,4.43
2023-05-01T16:24:22.642Z,4.50
2023-05-01T16:26:49.740Z,6.30
2023-05-01T16:29:17.355Z,4.82
2023-05-01T16:31:47.469Z,3.63
2023-05-01T16:34:18.118Z,3.85
2023-05-01T16:36:46.999Z,4.15
2023-05-01T16:39:16.357Z,4.53
2023-05-01T16:41:45.845Z,4.88
2023-05-01T16:44:17.072Z,4.25
2023-05-01T16:49:15.429Z,4.18
2023-05-01T16:51:42.735Z,4.93
2023-05-01T16:54:09.981Z,4.45
2023-05-01T16:56:36.917Z,4.32
2023-05-01T16:59:04.194Z,4.30
2023-05-01T17:01:31.079Z,3.90
2023-05-01T17:03:58.157Z,4.18
2023-05-01T17:06:25.119Z,4.10
2023-05-01T17:08:52.313Z,3.83
2023-05-01T17:11:19.086Z,4.18
2023-05-01T17:13:49.025Z,3.75
2023-05-01T17:16:15.845Z,3.90
2023-05-01T17:18:43.031Z,3.92
2023-05-01T17:21:09.904Z,4.07
2023-05-01T17:23:36.923Z,3.83
2023-05-01T17:26:04.009Z,3.95
2023-05-01T17:28:31.203Z,4.82
2023-05-01T17:30:58.065Z,4.88
2023-05-01T17:33:29.537Z,4.25
2023-05-01T17:35:59.650Z,4.90
2023-05-01T17:38:26.995Z,6.35
2023-05-01T17:40:53.704Z,6.85
2023-05-01T17:43:20.934Z,5.43
2023-05-01T17:45:48.771Z,7.38
2023-05-01T17:48:16.009Z,6.60
2023-05-01T17:50:42.888Z,6.22
2023-05-01T17:53:10.859Z,6.82
2023-05-01T17:55:39.054Z,7.50
2023-05-01T17:58:07.141Z,8.68
2023-05-01T18:00:35.189Z,7.45
2023-05-01T18:03:02.488Z,8.10
2023-05-01T18:05:29.401Z,7.68
2023-05-01T18:07:56.449Z,8.15
2023-05-01T18:10:23.226Z,9.45
2023-05-01T18:12:50.240Z,9.65
2023-05-01T18:15:22.111Z,8.63
2023-05-01T18:17:50.988Z,11.70
2023-05-01T18:20:18.012Z,10.20
2023-05-01T18:22:45.411Z,10.13
2023-05-01T18:25:12.563Z,8.88
2023-05-01T18:27:41.695Z,10.02
2023-05-01T18:30:09.609Z,12.88
2023-05-01T18:32:47.519Z,12.43
2023-05-01T18:35:17.165Z,13.75
2023-05-01T18:37:44.378Z,11.75
2023-05-01T18:40:11.673Z,10.63
2023-05-01T18:42:49.222Z,11.50
2023-05-01T18:45:15.993Z,14.93
2023-05-01T18:47:43.267Z,15.88
2023-05-01T18:50:10.513Z,14.82
2023-05-01T18:52:38.012Z,15.52
2023-05-01T18:55:05.368Z,13.20
2023-05-01T18:57:32.662Z,12.98
2023-05-01T19:00:01.429Z,13.10
2023-05-01T19:02:29.080Z,11.93
2023-05-01T19:04:57.863Z,11.85
2023-05-01T19:07:26.566Z,13.02
2023-05-01T19:09:53.466Z,12.48
2023-05-01T19:12:20.825Z,10.82
2023-05-01T19:14:47.780Z,11.77
2023-05-01T19:17:14.900Z,10.18
2023-05-01T19:19:41.923Z,8.90
2023-05-01T19:22:09.013Z,8.23
2023-05-01T19:24:35.859Z,7.93
2023-05-01T19:27:03.493Z,9.55
2023-05-01T19:29:33.485Z,9.35
2023-05-01T19:32:00.776Z,8.32
2023-05-01T19:34:28.369Z,8.13
2023-05-01T19:36:57.121Z,8.85
2023-05-01T19:39:24.096Z,8.00
2023-05-01T19:41:51.342Z,9.48
2023-05-01T19:44:18.394Z,9.40
2023-05-01T19:46:45.410Z,7.95
2023-05-01T19:49:12.541Z,8.70
2023-05-01T19:51:39.782Z,7.97
2023-05-01T19:54:06.646Z,7.63
2023-05-01T19:56:34.345Z,7.32
2023-05-01T19:59:01.056Z,8.05
2023-05-01T20:01:31.358Z,7.93
2023-05-01T20:03:58.515Z,8.18
2023-05-01T20:06:26.523Z,7.40
2023-05-01T20:08:53.497Z,7.63
2023-05-01T20:11:20.897Z,7.35
2023-05-01T20:13:47.611Z,7.22
2023-05-01T20:16:14.932Z,7.90
2023-05-01T20:18:41.804Z,7.47
2023-05-01T20:21:09.105Z,6.35
2023-05-01T20:23:36.006Z,6.38
2023-05-01T20:26:04.108Z,6.38
2023-05-01T20:28:30.868Z,6.43
2023-05-01T20:30:58.128Z,6.10
2023-05-01T20:33:24.926Z,5.97
2023-05-01T20:35:51.875Z,5.53
2023-05-01T20:38:18.639Z,5.32
2023-05-01T20:40:45.705Z,5.50
2023-05-01T20:43:12.987Z,5.97
2023-05-01T20:45:40.175Z,5.45
2023-05-01T20:48:07.577Z,5.82
2023-05-01T20:50:35.764Z,5.78
2023-05-01T20:53:02.575Z,5.60
2023-05-01T20:55:30.043Z,5.63
2023-05-01T20:57:56.771Z,4.70
2023-05-01T21:00:23.810Z,5.55
2023-05-01T21:02:52.018Z,5.25
2023-05-01T21:05:19.242Z,5.63
2023-05-01T21:07:46.163Z,6.03
2023-05-01T21:10:14.617Z,5.43
2023-05-01T21:12:42.701Z,5.18
2023-05-01T21:15:11.402Z,6.55
2023-05-01T21:17:40.593Z,5.68
2023-05-01T21:20:13.115Z,6.57
2023-05-01T21:22:41.757Z,8.88
2023-05-01T21:25:09.235Z,6.25
2023-05-01T21:27:40.714Z,7.57
2023-05-01T21:30:08.757Z,6.60
2023-05-01T21:32:40.354Z,6.57
2023-05-01T21:35:08.264Z,6.10
2023-05-01T21:37:34.974Z,6.85
2023-05-01T21:40:04.100Z,5.75
2023-05-01T21:42:36.403Z,5.75
2023-05-01T21:45:12.580Z,6.40
2023-05-01T21:47:52.430Z,7.45
2023-05-01T21:50:21.444Z,6.72
2023-05-01T21:52:49.816Z,7.15
2023-05-01T21:55:23.073Z,7.65
2023-05-01T21:57:58.868Z,7.07
2023-05-01T22:00:27.328Z,7.53
2023-05-01T22:02:54.136Z,6.35
2023-05-01T22:05:22.954Z,7.15
2023-05-01T22:07:52.194Z,6.78
2023-05-01T22:10:19.634Z,6.53
2023-05-01T22:12:48.884Z,7.55
2023-05-01T22:15:16.809Z,7.18
2023-05-01T22:17:44.087Z,6.35
2023-05-01T22:20:11.711Z,5.72
2023-05-01T22:22:40.566Z,6.43
2023-05-01T22:25:08.515Z,6.60
2023-05-01T22:27:35.983Z,5.68
2023-05-01T22:30:04.362Z,6.25
2023-05-01T22:32:31.260Z,6.47
2023-05-01T22:34:58.529Z,7.03
2023-05-01T22:37:28.378Z,7.25
2023-05-01T22:39:55.389Z,6.93
2023-05-01T22:42:23.273Z,6.00
2023-05-01T22:44:50.474Z,6.35
2023-05-01T22:47:17.547Z,5.65
2023-05-01T22:49:44.995Z,5.63
2023-05-01T22:52:11.826Z,6.38
2023-05-01T22:54:38.983Z,6.00
2023-05-01T22:57:05.772Z,5.65
2023-05-01T22:59:33.087Z,5.53
2023-05-01T23:02:03.173Z,5.82
2023-05-01T23:04:31.057Z,6.40
2023-05-01T23:06:58.562Z,5.82
2023-05-01T23:09:25.704Z,5.97
2023-05-01T23:11:52.396Z,5.78
2023-05-01T23:14:19.437Z,5.63
2023-05-01T23:16:46.129Z,5.97
2023-05-01T23:19:24.888Z,6.10
2023-05-01T23:22:06.403Z,6.10
2023-05-01T23:24:42.481Z,6.18
2023-05-01T23:27:09.385Z,6.28
2023-05-01T23:29:36.681Z,7.18
2023-05-01T23:32:04.199Z,6.55
2023-05-01T23:34:31.975Z,7.53
2023-05-01T23:36:58.730Z,6.55
2023-05-01T23:39:25.760Z,7.03
2023-05-01T23:41:53.195Z,6.68
2023-05-01T23:44:20.538Z,7.47
2023-05-01T23:46:47.659Z,7.50
2023-05-01T23:49:14.693Z,7.53
2023-05-01T23:51:41.454Z,7.40
2023-05-01T23:54:12.025Z,8.10
2023-05-01T23:56:38.768Z,8.23
2023-05-01T23:59:05.687Z,7.68
